sensor_id;sensor_type;location;lat;lon;timestamp;P1;durP1;ratioP1;P2;durP2;ratioP2
69837;SDS011;57135;51.992;4.476;2023-04-01T00:01:12;37.57;;;25.11;;
69837;SDS011;57135;51.992;4.476;2023-04-01T00:03:39;38.66;;;25.82;;
69837;SDS011;57135;51.992;4.476;2023-04-01T00:06:04;42.22;;;28.12;;
69837;SDS011;57135;51.992;4.476;2023-04-01T00:08:33;34.94;;;23.07;;
69837;SDS011;57135;51.992;4.476;2023-04-01T00:10:58;34.33;;;23.26;;
69837;SDS011;57135;51.992;4.476;2023-04-01T00:13:24;32.70;;;22.72;;
69837;SDS011;57135;51.992;4.476;2023-04-01T00:15:51;29.03;;;20.43;;
69837;SDS011;57135;51.992;4.476;2023-04-01T00:18:17;26.29;;;18.99;;
69837;SDS011;57135;51.992;4.476;2023-04-01T00:20:44;24.48;;;17.64;;
69837;SDS011;57135;51.992;4.476;2023-04-01T00:23:13;25.37;;;18.49;;
69837;SDS011;57135;51.992;4.476;2023-04-01T00:25:39;23.92;;;18.33;;
69837;SDS011;57135;51.992;4.476;2023-04-01T00:28:05;28.98;;;20.94;;
69837;SDS011;57135;51.992;4.476;2023-04-01T00:30:30;25.64;;;19.31;;
69837;SDS011;57135;51.992;4.476;2023-04-01T00:32:56;25.97;;;19.32;;
69837;SDS011;57135;51.992;4.476;2023-04-01T00:35:22;25.72;;;18.73;;
69837;SDS011;57135;51.992;4.476;2023-04-01T00:37:47;26.83;;;19.12;;
69837;SDS011;57135;51.992;4.476;2023-04-01T00:42:56;26.74;;;19.19;;
69837;SDS011;57135;51.992;4.476;2023-04-01T00:47:59;25.50;;;19.28;;
69837;SDS011;57135;51.992;4.476;2023-04-01T00:50:29;26.77;;;19.85;;
69837;SDS011;57135;51.992;4.476;2023-04-01T00:52:57;27.00;;;20.37;;
69837;SDS011;57135;51.992;4.476;2023-04-01T00:55:27;25.65;;;19.93;;
69837;SDS011;57135;51.992;4.476;2023-04-01T00:57:56;25.64;;;19.20;;
69837;SDS011;57135;51.992;4.476;2023-04-01T01:00:22;26.00;;;19.76;;
69837;SDS011;57135;51.992;4.476;2023-04-01T01:02:48;26.03;;;20.20;;
69837;SDS011;57135;51.992;4.476;2023-04-01T01:05:16;25.09;;;19.21;;
69837;SDS011;57135;51.992;4.476;2023-04-01T01:07:47;26.93;;;21.51;;
69837;SDS011;57135;51.992;4.476;2023-04-01T01:10:29;23.32;;;18.19;;
69837;SDS011;57135;51.992;4.476;2023-04-01T01:15:45;20.49;;;15.66;;
69837;SDS011;57135;51.992;4.476;2023-04-01T01:24:26;16.08;;;12.43;;
69837;SDS011;57135;51.992;4.476;2023-04-01T01:27:02;17.01;;;13.20;;
69837;SDS011;57135;51.992;4.476;2023-04-01T01:29:40;16.38;;;12.59;;
69837;SDS011;57135;51.992;4.476;2023-04-01T01:37:44;16.05;;;12.72;;
69837;SDS011;57135;51.992;4.476;2023-04-01T01:40:11;14.55;;;11.31;;
69837;SDS011;57135;51.992;4.476;2023-04-01T01:42:40;14.61;;;11.72;;
69837;SDS011;57135;51.992;4.476;2023-04-01T01:45:11;14.90;;;11.63;;
69837;SDS011;57135;51.992;4.476;2023-04-01T01:47:43;15.55;;;11.86;;
69837;SDS011;57135;51.992;4.476;2023-04-01T01:50:11;12.62;;;9.99;;
69837;SDS011;57135;51.992;4.476;2023-04-01T01:52:38;11.21;;;9.31;;
69837;SDS011;57135;51.992;4.476;2023-04-01T01:55:22;11.27;;;9.35;;
69837;SDS011;57135;51.992;4.476;2023-04-01T01:57:48;9.90;;;8.16;;
69837;SDS011;57135;51.992;4.476;2023-04-01T02:00:14;10.28;;;8.60;;
69837;SDS011;57135;51.992;4.476;2023-04-01T02:02:42;10.81;;;9.11;;
69837;SDS011;57135;51.992;4.476;2023-04-01T02:05:11;10.66;;;9.19;;
69837;SDS011;57135;51.992;4.476;2023-04-01T02:07:45;9.71;;;8.66;;
69837;SDS011;57135;51.992;4.476;2023-04-01T02:10:20;9.36;;;8.26;;
69837;SDS011;57135;51.992;4.476;2023-04-01T02:12:49;9.27;;;8.32;;
69837;SDS011;57135;51.992;4.476;2023-04-01T02:15:18;9.13;;;8.16;;
69837;SDS011;57135;51.992;4.476;2023-04-01T02:17:46;8.09;;;7.23;;
69837;SDS011;57135;51.992;4.476;2023-04-01T02:20:15;8.22;;;7.34;;
69837;SDS011;57135;51.992;4.476;2023-04-01T02:22:46;8.21;;;7.43;;
69837;SDS011;57135;51.992;4.476;2023-04-01T02:25:14;7.59;;;7.01;;
69837;SDS011;57135;51.992;4.476;2023-04-01T02:28:08;7.87;;;7.23;;
69837;SDS011;57135;51.992;4.476;2023-04-01T02:30:36;7.70;;;7.14;;
69837;SDS011;57135;51.992;4.476;2023-04-01T02:33:05;7.44;;;7.10;;
69837;SDS011;57135;51.992;4.476;2023-04-01T02:35:32;7.42;;;7.08;;
69837;SDS011;57135;51.992;4.476;2023-04-01T02:38:00;7.38;;;7.05;;
69837;SDS011;57135;51.992;4.476;2023-04-01T02:40:26;8.44;;;8.29;;
69837;SDS011;57135;51.992;4.476;2023-04-01T02:42:51;9.47;;;9.25;;
69837;SDS011;57135;51.992;4.476;2023-04-01T02:45:17;9.81;;;9.59;;
69837;SDS011;57135;51.992;4.476;2023-04-01T02:47:43;11.21;;;10.82;;
69837;SDS011;57135;51.992;4.476;2023-04-01T02:50:08;10.98;;;10.75;;
69837;SDS011;57135;51.992;4.476;2023-04-01T02:52:35;10.85;;;10.61;;
69837;SDS011;57135;51.992;4.476;2023-04-01T02:55:00;11.75;;;11.37;;
69837;SDS011;57135;51.992;4.476;2023-04-01T02:57:26;12.10;;;11.80;;
69837;SDS011;57135;51.992;4.476;2023-04-01T02:59:51;13.01;;;12.66;;
69837;SDS011;57135;51.992;4.476;2023-04-01T03:02:17;13.55;;;13.19;;
69837;SDS011;57135;51.992;4.476;2023-04-01T03:04:42;14.03;;;13.34;;
69837;SDS011;57135;51.992;4.476;2023-04-01T03:07:08;15.06;;;14.31;;
69837;SDS011;57135;51.992;4.476;2023-04-01T03:09:35;15.36;;;14.45;;
69837;SDS011;57135;51.992;4.476;2023-04-01T03:12:01;17.06;;;15.77;;
69837;SDS011;57135;51.992;4.476;2023-04-01T03:14:27;17.70;;;16.46;;
69837;SDS011;57135;51.992;4.476;2023-04-01T03:16:52;19.56;;;17.86;;
69837;SDS011;57135;51.992;4.476;2023-04-01T03:19:17;20.59;;;18.47;;
69837;SDS011;57135;51.992;4.476;2023-04-01T03:21:43;22.66;;;20.04;;
69837;SDS011;57135;51.992;4.476;2023-04-01T03:24:08;23.42;;;20.61;;
69837;SDS011;57135;51.992;4.476;2023-04-01T03:26:34;23.22;;;20.44;;
69837;SDS011;57135;51.992;4.476;2023-04-01T03:28:59;24.36;;;20.89;;
69837;SDS011;57135;51.992;4.476;2023-04-01T03:31:25;23.02;;;20.02;;
69837;SDS011;57135;51.992;4.476;2023-04-01T03:33:50;23.13;;;20.32;;
69837;SDS011;57135;51.992;4.476;2023-04-01T03:36:16;21.50;;;19.08;;
69837;SDS011;57135;51.992;4.476;2023-04-01T03:38:42;21.53;;;19.11;;
69837;SDS011;57135;51.992;4.476;2023-04-01T03:41:11;22.49;;;19.46;;
69837;SDS011;57135;51.992;4.476;2023-04-01T03:43:38;22.90;;;19.58;;
69837;SDS011;57135;51.992;4.476;2023-04-01T03:46:04;21.22;;;18.44;;
69837;SDS011;57135;51.992;4.476;2023-04-01T03:48:30;21.65;;;18.97;;
69837;SDS011;57135;51.992;4.476;2023-04-01T03:50:55;20.79;;;18.30;;
69837;SDS011;57135;51.992;4.476;2023-04-01T03:53:21;22.67;;;19.26;;
69837;SDS011;57135;51.992;4.476;2023-04-01T03:55:47;22.93;;;19.52;;
69837;SDS011;57135;51.992;4.476;2023-04-01T03:58:12;21.72;;;18.64;;
69837;SDS011;57135;51.992;4.476;2023-04-01T04:00:38;22.51;;;19.15;;
69837;SDS011;57135;51.992;4.476;2023-04-01T04:03:03;22.37;;;18.89;;
69837;SDS011;57135;51.992;4.476;2023-04-01T04:05:28;22.20;;;18.71;;
69837;SDS011;57135;51.992;4.476;2023-04-01T04:07:54;24.09;;;19.77;;
69837;SDS011;57135;51.992;4.476;2023-04-01T04:10:20;24.34;;;19.71;;
69837;SDS011;57135;51.992;4.476;2023-04-01T04:12:48;24.24;;;19.79;;
69837;SDS011;57135;51.992;4.476;2023-04-01T04:15:14;23.24;;;19.18;;
69837;SDS011;57135;51.992;4.476;2023-04-01T04:17:40;24.81;;;20.00;;
69837;SDS011;57135;51.992;4.476;2023-04-01T04:20:06;22.60;;;18.75;;
69837;SDS011;57135;51.992;4.476;2023-04-01T04:22:33;20.36;;;17.62;;
69837;SDS011;57135;51.992;4.476;2023-04-01T04:24:59;19.91;;;17.35;;
69837;SDS011;57135;51.992;4.476;2023-04-01T04:27:24;19.19;;;17.32;;
69837;SDS011;57135;51.992;4.476;2023-04-01T04:29:50;19.46;;;17.31;;
69837;SDS011;57135;51.992;4.476;2023-04-01T04:32:15;18.78;;;16.88;;
69837;SDS011;57135;51.992;4.476;2023-04-01T04:34:41;18.35;;;16.76;;
69837;SDS011;57135;51.992;4.476;2023-04-01T04:37:06;17.35;;;16.11;;
69837;SDS011;57135;51.992;4.476;2023-04-01T04:39:31;17.88;;;16.34;;
69837;SDS011;57135;51.992;4.476;2023-04-01T04:41:57;17.36;;;16.18;;
69837;SDS011;57135;51.992;4.476;2023-04-01T04:44:22;17.35;;;16.01;;
69837;SDS011;57135;51.992;4.476;2023-04-01T04:46:48;17.87;;;16.33;;
69837;SDS011;57135;51.992;4.476;2023-04-01T04:49:14;16.81;;;15.61;;
69837;SDS011;57135;51.992;4.476;2023-04-01T04:51:39;17.69;;;16.13;;
69837;SDS011;57135;51.992;4.476;2023-04-01T04:54:05;17.73;;;16.34;;
69837;SDS011;57135;51.992;4.476;2023-04-01T04:56:31;17.95;;;16.65;;
69837;SDS011;57135;51.992;4.476;2023-04-01T04:58:57;17.51;;;16.06;;
69837;SDS011;57135;51.992;4.476;2023-04-01T05:01:23;17.23;;;16.13;;
69837;SDS011;57135;51.992;4.476;2023-04-01T05:03:50;18.64;;;17.31;;
69837;SDS011;57135;51.992;4.476;2023-04-01T05:06:17;18.78;;;17.47;;
69837;SDS011;57135;51.992;4.476;2023-04-01T05:08:43;17.96;;;16.89;;
69837;SDS011;57135;51.992;4.476;2023-04-01T05:11:12;19.10;;;17.81;;
69837;SDS011;57135;51.992;4.476;2023-04-01T05:13:38;18.26;;;17.29;;
69837;SDS011;57135;51.992;4.476;2023-04-01T05:16:07;19.10;;;17.77;;
69837;SDS011;57135;51.992;4.476;2023-04-01T05:18:37;19.53;;;18.22;;
69837;SDS011;57135;51.992;4.476;2023-04-01T05:21:02;20.60;;;18.86;;
69837;SDS011;57135;51.992;4.476;2023-04-01T05:23:30;21.01;;;19.40;;
69837;SDS011;57135;51.992;4.476;2023-04-01T05:25:56;19.82;;;18.26;;
69837;SDS011;57135;51.992;4.476;2023-04-01T05:28:22;19.58;;;18.28;;
69837;SDS011;57135;51.992;4.476;2023-04-01T05:30:48;20.55;;;19.57;;
69837;SDS011;57135;51.992;4.476;2023-04-01T05:33:13;20.95;;;19.54;;
69837;SDS011;57135;51.992;4.476;2023-04-01T05:35:40;20.17;;;18.82;;
69837;SDS011;57135;51.992;4.476;2023-04-01T05:38:06;20.27;;;18.56;;
69837;SDS011;57135;51.992;4.476;2023-04-01T05:40:32;20.93;;;19.20;;
69837;SDS011;57135;51.992;4.476;2023-04-01T05:42:58;18.89;;;17.55;;
69837;SDS011;57135;51.992;4.476;2023-04-01T05:45:24;21.06;;;19.10;;
69837;SDS011;57135;51.992;4.476;2023-04-01T05:47:50;19.54;;;17.88;;
69837;SDS011;57135;51.992;4.476;2023-04-01T05:50:15;18.73;;;17.17;;
69837;SDS011;57135;51.992;4.476;2023-04-01T05:52:41;20.08;;;18.17;;
69837;SDS011;57135;51.992;4.476;2023-04-01T05:55:07;19.01;;;17.27;;
69837;SDS011;57135;51.992;4.476;2023-04-01T05:57:33;17.75;;;16.52;;
69837;SDS011;57135;51.992;4.476;2023-04-01T05:59:59;17.78;;;16.81;;
69837;SDS011;57135;51.992;4.476;2023-04-01T06:02:25;17.49;;;16.46;;
69837;SDS011;57135;51.992;4.476;2023-04-01T06:05:37;17.67;;;16.63;;
69837;SDS011;57135;51.992;4.476;2023-04-01T06:07:45;19.23;;;18.26;;
69837;SDS011;57135;51.992;4.476;2023-04-01T06:10:16;19.67;;;19.00;;
69837;SDS011;57135;51.992;4.476;2023-04-01T06:15:20;17.33;;;16.53;;
69837;SDS011;57135;51.992;4.476;2023-04-01T06:18:03;18.31;;;17.59;;
69837;SDS011;57135;51.992;4.476;2023-04-01T06:23:47;19.65;;;18.83;;
69837;SDS011;57135;51.992;4.476;2023-04-01T06:26:54;19.27;;;18.34;;
69837;SDS011;57135;51.992;4.476;2023-04-01T06:40:22;19.83;;;19.16;;
69837;SDS011;57135;51.992;4.476;2023-04-01T06:43:25;20.41;;;19.51;;
69837;SDS011;57135;51.992;4.476;2023-04-01T06:46:14;19.31;;;18.54;;
69837;SDS011;57135;51.992;4.476;2023-04-01T06:48:59;19.53;;;18.59;;
69837;SDS011;57135;51.992;4.476;2023-04-01T06:51:59;20.58;;;19.77;;
69837;SDS011;57135;51.992;4.476;2023-04-01T06:54:36;18.16;;;17.56;;
69837;SDS011;57135;51.992;4.476;2023-04-01T06:57:08;16.21;;;15.89;;
69837;SDS011;57135;51.992;4.476;2023-04-01T07:00:04;15.74;;;15.53;;
69837;SDS011;57135;51.992;4.476;2023-04-01T07:02:50;13.51;;;13.26;;
69837;SDS011;57135;51.992;4.476;2023-04-01T07:05:23;14.36;;;14.12;;
69837;SDS011;57135;51.992;4.476;2023-04-01T07:07:54;14.24;;;13.96;;
69837;SDS011;57135;51.992;4.476;2023-04-01T07:10:33;12.08;;;11.90;;
69837;SDS011;57135;51.992;4.476;2023-04-01T07:13:17;11.03;;;10.82;;
69837;SDS011;57135;51.992;4.476;2023-04-01T07:15:51;10.98;;;10.82;;
69837;SDS011;57135;51.992;4.476;2023-04-01T07:21:25;8.93;;;8.89;;
69837;SDS011;57135;51.992;4.476;2023-04-01T07:23:54;8.34;;;8.24;;
69837;SDS011;57135;51.992;4.476;2023-04-01T07:26:31;8.26;;;8.09;;
69837;SDS011;57135;51.992;4.476;2023-04-01T07:28:56;7.93;;;7.80;;
69837;SDS011;57135;51.992;4.476;2023-04-01T07:32:05;7.83;;;7.69;;
69837;SDS011;57135;51.992;4.476;2023-04-01T07:34:24;7.43;;;7.35;;
69837;SDS011;57135;51.992;4.476;2023-04-01T07:36:53;7.43;;;7.30;;
69837;SDS011;57135;51.992;4.476;2023-04-01T07:42:33;8.23;;;8.06;;
69837;SDS011;57135;51.992;4.476;2023-04-01T07:47:45;9.73;;;9.46;;
69837;SDS011;57135;51.992;4.476;2023-04-01T07:53:08;10.49;;;10.23;;
69837;SDS011;57135;51.992;4.476;2023-04-01T07:55:45;11.06;;;10.79;;
69837;SDS011;57135;51.992;4.476;2023-04-01T07:58:29;11.57;;;11.23;;
69837;SDS011;57135;51.992;4.476;2023-04-01T08:01:28;12.11;;;11.55;;
69837;SDS011;57135;51.992;4.476;2023-04-01T08:04:24;12.04;;;11.31;;
69837;SDS011;57135;51.992;4.476;2023-04-01T08:15:25;13.83;;;13.15;;
69837;SDS011;57135;51.992;4.476;2023-04-01T08:18:04;13.87;;;12.74;;
69837;SDS011;57135;51.992;4.476;2023-04-01T08:20:45;14.30;;;13.27;;
69837;SDS011;57135;51.992;4.476;2023-04-01T08:23:16;15.77;;;14.48;;
69837;SDS011;57135;51.992;4.476;2023-04-01T08:25:48;16.59;;;15.04;;
69837;SDS011;57135;51.992;4.476;2023-04-01T08:28:37;16.60;;;15.21;;
69837;SDS011;57135;51.992;4.476;2023-04-01T08:33:56;16.52;;;15.02;;
69837;SDS011;57135;51.992;4.476;2023-04-01T08:36:28;15.92;;;14.71;;
69837;SDS011;57135;51.992;4.476;2023-04-01T08:39:08;17.50;;;15.91;;
69837;SDS011;57135;51.992;4.476;2023-04-01T08:52:37;17.91;;;16.47;;
69837;SDS011;57135;51.992;4.476;2023-04-01T09:00:24;18.47;;;16.81;;
69837;SDS011;57135;51.992;4.476;2023-04-01T09:03:10;16.81;;;15.48;;
69837;SDS011;57135;51.992;4.476;2023-04-01T09:40:35;21.67;;;19.21;;
69837;SDS011;57135;51.992;4.476;2023-04-01T09:54:24;15.43;;;13.88;;
69837;SDS011;57135;51.992;4.476;2023-04-01T10:16:41;11.79;;;11.13;;
69837;SDS011;57135;51.992;4.476;2023-04-01T10:25:19;15.46;;;13.87;;
69837;SDS011;57135;51.992;4.476;2023-04-01T10:28:09;15.57;;;14.14;;
69837;SDS011;57135;51.992;4.476;2023-04-01T10:30:58;15.58;;;14.10;;
69837;SDS011;57135;51.992;4.476;2023-04-01T10:45:02;13.55;;;12.23;;
69837;SDS011;57135;51.992;4.476;2023-04-01T11:07:59;16.25;;;14.54;;
69837;SDS011;57135;51.992;4.476;2023-04-01T11:21:58;17.87;;;16.16;;
69837;SDS011;57135;51.992;4.476;2023-04-01T11:38:09;19.62;;;17.01;;
69837;SDS011;57135;51.992;4.476;2023-04-01T11:43:40;19.16;;;16.60;;
69837;SDS011;57135;51.992;4.476;2023-04-01T11:46:19;19.13;;;16.38;;
69837;SDS011;57135;51.992;4.476;2023-04-01T11:49:02;18.08;;;15.93;;
69837;SDS011;57135;51.992;4.476;2023-04-01T11:54:50;18.32;;;16.12;;
69837;SDS011;57135;51.992;4.476;2023-04-01T12:20:23;13.52;;;12.22;;
69837;SDS011;57135;51.992;4.476;2023-04-01T12:36:54;13.23;;;11.89;;
69837;SDS011;57135;51.992;4.476;2023-04-01T12:55:59;15.58;;;13.70;;
69837;SDS011;57135;51.992;4.476;2023-04-01T13:01:29;13.74;;;12.47;;
69837;SDS011;57135;51.992;4.476;2023-04-01T13:07:38;13.83;;;12.80;;
69837;SDS011;57135;51.992;4.476;2023-04-01T13:12:31;15.13;;;13.53;;
69837;SDS011;57135;51.992;4.476;2023-04-01T13:17:59;14.32;;;13.19;;
69837;SDS011;57135;51.992;4.476;2023-04-01T13:20:47;14.86;;;13.64;;
69837;SDS011;57135;51.992;4.476;2023-04-01T13:26:02;13.90;;;12.93;;
69837;SDS011;57135;51.992;4.476;2023-04-01T13:36:38;12.05;;;11.36;;
69837;SDS011;57135;51.992;4.476;2023-04-01T13:49:56;10.29;;;10.20;;
69837;SDS011;57135;51.992;4.476;2023-04-01T14:06:16;8.75;;;8.75;;
69837;SDS011;57135;51.992;4.476;2023-04-01T14:20:02;9.59;;;9.42;;
69837;SDS011;57135;51.992;4.476;2023-04-01T14:22:57;9.36;;;9.15;;
69837;SDS011;57135;51.992;4.476;2023-04-01T14:28:42;9.67;;;9.37;;
69837;SDS011;57135;51.992;4.476;2023-04-01T14:47:53;8.40;;;8.01;;
69837;SDS011;57135;51.992;4.476;2023-04-01T14:50:25;8.18;;;7.69;;
69837;SDS011;57135;51.992;4.476;2023-04-01T15:00:41;7.44;;;7.09;;
69837;SDS011;57135;51.992;4.476;2023-04-01T15:06:31;7.83;;;7.34;;
69837;SDS011;57135;51.992;4.476;2023-04-01T15:11:37;8.51;;;7.80;;
69837;SDS011;57135;51.992;4.476;2023-04-01T15:25:19;7.35;;;6.95;;
69837;SDS011;57135;51.992;4.476;2023-04-01T15:28:42;7.13;;;6.66;;
69837;SDS011;57135;51.992;4.476;2023-04-01T15:39:38;7.33;;;6.94;;
69837;SDS011;57135;51.992;4.476;2023-04-01T15:47:36;7.59;;;7.23;;
69837;SDS011;57135;51.992;4.476;2023-04-01T15:55:47;8.12;;;7.74;;
69837;SDS011;57135;51.992;4.476;2023-04-01T16:07:24;8.08;;;7.96;;
69837;SDS011;57135;51.992;4.476;2023-04-01T16:10:17;9.42;;;9.30;;
69837;SDS011;57135;51.992;4.476;2023-04-01T16:15:54;11.33;;;11.13;;
69837;SDS011;57135;51.992;4.476;2023-04-01T16:21:14;11.54;;;11.41;;
69837;SDS011;57135;51.992;4.476;2023-04-01T16:24:44;12.13;;;11.82;;
69837;SDS011;57135;51.992;4.476;2023-04-01T16:26:52;12.50;;;12.07;;
69837;SDS011;57135;51.992;4.476;2023-04-01T16:29:27;12.18;;;11.91;;
69837;SDS011;57135;51.992;4.476;2023-04-01T16:45:40;11.11;;;10.80;;
69837;SDS011;57135;51.992;4.476;2023-04-01T16:51:37;12.18;;;11.87;;
69837;SDS011;57135;51.992;4.476;2023-04-01T16:54:14;13.06;;;12.74;;
69837;SDS011;57135;51.992;4.476;2023-04-01T16:56:56;12.63;;;12.32;;
69837;SDS011;57135;51.992;4.476;2023-04-01T17:02:13;10.89;;;10.74;;
69837;SDS011;57135;51.992;4.476;2023-04-01T17:04:54;10.82;;;10.65;;
69837;SDS011;57135;51.992;4.476;2023-04-01T17:13:03;11.64;;;11.62;;
69837;SDS011;57135;51.992;4.476;2023-04-01T17:20:56;11.65;;;11.54;;
69837;SDS011;57135;51.992;4.476;2023-04-01T17:33:39;12.87;;;12.74;;
69837;SDS011;57135;51.992;4.476;2023-04-01T17:39:23;11.69;;;11.60;;
69837;SDS011;57135;51.992;4.476;2023-04-01T17:44:52;11.33;;;11.32;;
69837;SDS011;57135;51.992;4.476;2023-04-01T17:47:29;11.57;;;11.57;;
69837;SDS011;57135;51.992;4.476;2023-04-01T18:11:49;11.29;;;11.29;;
69837;SDS011;57135;51.992;4.476;2023-04-01T18:14:40;11.06;;;11.06;;
69837;SDS011;57135;51.992;4.476;2023-04-01T18:17:23;10.74;;;10.74;;
69837;SDS011;57135;51.992;4.476;2023-04-01T18:22:45;11.57;;;11.55;;
69837;SDS011;57135;51.992;4.476;2023-04-01T18:25:21;11.86;;;11.86;;
69837;SDS011;57135;51.992;4.476;2023-04-01T18:28:11;11.12;;;11.12;;
69837;SDS011;57135;51.992;4.476;2023-04-01T18:30:40;11.62;;;11.62;;
69837;SDS011;57135;51.992;4.476;2023-04-01T18:33:16;9.91;;;9.91;;
69837;SDS011;57135;51.992;4.476;2023-04-01T18:39:01;9.76;;;9.76;;
69837;SDS011;57135;51.992;4.476;2023-04-01T18:55:52;11.17;;;11.17;;
69837;SDS011;57135;51.992;4.476;2023-04-01T18:58:23;12.56;;;12.56;;
69837;SDS011;57135;51.992;4.476;2023-04-01T19:01:03;13.61;;;13.60;;
69837;SDS011;57135;51.992;4.476;2023-04-01T19:03:45;12.50;;;12.50;;
69837;SDS011;57135;51.992;4.476;2023-04-01T19:06:20;11.22;;;11.22;;
69837;SDS011;57135;51.992;4.476;2023-04-01T19:17:04;10.09;;;10.09;;
69837;SDS011;57135;51.992;4.476;2023-04-01T19:19:42;10.35;;;10.35;;
69837;SDS011;57135;51.992;4.476;2023-04-01T19:35:42;11.07;;;11.07;;
69837;SDS011;57135;51.992;4.476;2023-04-01T19:38:19;10.81;;;10.81;;
69837;SDS011;57135;51.992;4.476;2023-04-01T19:51:43;9.83;;;9.83;;
69837;SDS011;57135;51.992;4.476;2023-04-01T19:57:38;9.92;;;9.92;;
69837;SDS011;57135;51.992;4.476;2023-04-01T20:14:13;12.66;;;12.66;;
69837;SDS011;57135;51.992;4.476;2023-04-01T20:17:27;12.84;;;12.84;;
69837;SDS011;57135;51.992;4.476;2023-04-01T20:25:17;14.41;;;14.33;;
69837;SDS011;57135;51.992;4.476;2023-04-01T20:33:21;12.74;;;12.70;;
69837;SDS011;57135;51.992;4.476;2023-04-01T20:41:55;11.69;;;11.69;;
69837;SDS011;57135;51.992;4.476;2023-04-01T20:44:46;12.30;;;12.26;;
69837;SDS011;57135;51.992;4.476;2023-04-01T20:50:51;15.04;;;14.84;;
69837;SDS011;57135;51.992;4.476;2023-04-01T20:59:16;15.04;;;15.00;;
69837;SDS011;57135;51.992;4.476;2023-04-01T21:02:04;14.67;;;14.66;;
69837;SDS011;57135;51.992;4.476;2023-04-01T21:07:22;11.72;;;11.48;;
69837;SDS011;57135;51.992;4.476;2023-04-01T21:15:21;9.31;;;9.31;;
69837;SDS011;57135;51.992;4.476;2023-04-01T21:21:15;10.23;;;10.14;;
69837;SDS011;57135;51.992;4.476;2023-04-01T21:34:34;12.12;;;12.01;;
69837;SDS011;57135;51.992;4.476;2023-04-01T21:43:01;10.17;;;10.06;;
69837;SDS011;57135;51.992;4.476;2023-04-01T22:00:13;10.47;;;10.28;;
69837;SDS011;57135;51.992;4.476;2023-04-01T22:08:37;10.91;;;10.62;;
69837;SDS011;57135;51.992;4.476;2023-04-01T22:11:19;10.09;;;10.01;;
69837;SDS011;57135;51.992;4.476;2023-04-01T22:14:05;9.82;;;9.81;;
69837;SDS011;57135;51.992;4.476;2023-04-01T22:16:48;9.66;;;9.51;;
69837;SDS011;57135;51.992;4.476;2023-04-01T22:25:56;9.43;;;9.36;;
69837;SDS011;57135;51.992;4.476;2023-04-01T22:28:39;9.57;;;9.53;;
69837;SDS011;57135;51.992;4.476;2023-04-01T22:31:21;9.74;;;9.74;;
69837;SDS011;57135;51.992;4.476;2023-04-01T22:36:38;10.89;;;10.59;;
69837;SDS011;57135;51.992;4.476;2023-04-01T22:39:32;10.76;;;10.63;;
69837;SDS011;57135;51.992;4.476;2023-04-01T22:50:08;11.68;;;11.48;;
69837;SDS011;57135;51.992;4.476;2023-04-01T22:52:42;12.26;;;12.05;;
69837;SDS011;57135;51.992;4.476;2023-04-01T22:55:17;12.13;;;12.13;;
69837;SDS011;57135;51.992;4.476;2023-04-01T22:58:05;12.04;;;12.03;;
69837;SDS011;57135;51.992;4.476;2023-04-01T23:00:36;12.52;;;12.48;;
69837;SDS011;57135;51.992;4.476;2023-04-01T23:03:19;12.76;;;12.72;;
69837;SDS011;57135;51.992;4.476;2023-04-01T23:08:38;13.79;;;13.58;;
69837;SDS011;57135;51.992;4.476;2023-04-01T23:11:16;13.65;;;13.51;;
69837;SDS011;57135;51.992;4.476;2023-04-01T23:13:51;13.87;;;13.78;;
69837;SDS011;57135;51.992;4.476;2023-04-01T23:16:35;13.72;;;13.57;;
69837;SDS011;57135;51.992;4.476;2023-04-01T23:19:09;13.52;;;13.47;;
69837;SDS011;57135;51.992;4.476;2023-04-01T23:21:54;13.27;;;13.18;;
69837;SDS011;57135;51.992;4.476;2023-04-01T23:24:33;12.93;;;12.88;;
69837;SDS011;57135;51.992;4.476;2023-04-01T23:27:24;13.56;;;13.50;;
69837;SDS011;57135;51.992;4.476;2023-04-01T23:30:02;13.55;;;13.54;;
69837;SDS011;57135;51.992;4.476;2023-04-01T23:32:51;13.58;;;13.46;;
69837;SDS011;57135;51.992;4.476;2023-04-01T23:35:19;13.33;;;13.31;;
69837;SDS011;57135;51.992;4.476;2023-04-01T23:37:45;14.07;;;13.98;;
69837;SDS011;57135;51.992;4.476;2023-04-01T23:40:12;14.12;;;14.02;;
69837;SDS011;57135;51.992;4.476;2023-04-01T23:42:39;14.52;;;14.49;;
69837;SDS011;57135;51.992;4.476;2023-04-01T23:45:11;14.33;;;14.22;;
69837;SDS011;57135;51.992;4.476;2023-04-01T23:47:42;15.51;;;15.24;;
69837;SDS011;57135;51.992;4.476;2023-04-01T23:50:13;15.05;;;14.87;;
69837;SDS011;57135;51.992;4.476;2023-04-01T23:52:43;15.24;;;15.03;;
